sensor_id;sensor_type;location;lat;lon;timestamp;temperature;humidity
78455;SHT31;67751;51.986;5.696;2023-03-23T00:00:10;13.3;77.0
78455;SHT31;67751;51.986;5.696;2023-03-23T00:02:40;13.3;76.9
78455;SHT31;67751;51.986;5.696;2023-03-23T00:05:11;13.3;76.9
78455;SHT31;67751;51.986;5.696;2023-03-23T00:07:42;13.3;76.4
78455;SHT31;67751;51.986;5.696;2023-03-23T00:10:12;13.3;76.8
78455;SHT31;67751;51.986;5.696;2023-03-23T00:12:42;13.3;76.1
78455;SHT31;67751;51.986;5.696;2023-03-23T00:15:15;13.3;76.4
78455;SHT31;67751;51.986;5.696;2023-03-23T00:17:46;13.3;76.2
78455;SHT31;67751;51.986;5.696;2023-03-23T00:20:17;13.3;76.2
78455;SHT31;67751;51.986;5.696;2023-03-23T00:22:46;13.3;75.8
78455;SHT31;67751;51.986;5.696;2023-03-23T00:25:18;13.3;76.5
78455;SHT31;67751;51.986;5.696;2023-03-23T00:27:48;13.4;76.2
78455;SHT31;67751;51.986;5.696;2023-03-23T00:30:17;13.4;75.7
78455;SHT31;67751;51.986;5.696;2023-03-23T00:32:47;13.4;75.9
78455;SHT31;67751;51.986;5.696;2023-03-23T00:35:18;13.4;76.2
78455;SHT31;67751;51.986;5.696;2023-03-23T00:37:48;13.4;75.4
78455;SHT31;67751;51.986;5.696;2023-03-23T00:40:17;13.4;75.9
78455;SHT31;67751;51.986;5.696;2023-03-23T00:42:47;13.4;75.6
78455;SHT31;67751;51.986;5.696;2023-03-23T00:45:19;13.4;75.5
78455;SHT31;67751;51.986;5.696;2023-03-23T00:47:49;13.4;75.6
78455;SHT31;67751;51.986;5.696;2023-03-23T00:50:19;13.4;76.1
78455;SHT31;67751;51.986;5.696;2023-03-23T00:52:48;13.4;75.6
78455;SHT31;67751;51.986;5.696;2023-03-23T00:55:20;13.4;75.6
78455;SHT31;67751;51.986;5.696;2023-03-23T00:57:49;13.4;75.8
78455;SHT31;67751;51.986;5.696;2023-03-23T01:00:20;13.4;76.1
78455;SHT31;67751;51.986;5.696;2023-03-23T01:02:49;13.4;76.2
78455;SHT31;67751;51.986;5.696;2023-03-23T01:05:22;13.4;76.3
78455;SHT31;67751;51.986;5.696;2023-03-23T01:07:57;13.4;76.0
78455;SHT31;67751;51.986;5.696;2023-03-23T01:10:28;13.4;75.9
78455;SHT31;67751;51.986;5.696;2023-03-23T01:13:00;13.4;75.7
78455;SHT31;67751;51.986;5.696;2023-03-23T01:15:30;13.4;75.6
78455;SHT31;67751;51.986;5.696;2023-03-23T01:18:01;13.4;75.8
78455;SHT31;67751;51.986;5.696;2023-03-23T01:20:34;13.4;75.2
78455;SHT31;67751;51.986;5.696;2023-03-23T01:23:04;13.4;74.9
78455;SHT31;67751;51.986;5.696;2023-03-23T01:25:36;13.4;75.5
78455;SHT31;67751;51.986;5.696;2023-03-23T01:28:06;13.3;75.6
78455;SHT31;67751;51.986;5.696;2023-03-23T01:30:38;13.3;75.5
78455;SHT31;67751;51.986;5.696;2023-03-23T01:33:07;13.3;76.0
78455;SHT31;67751;51.986;5.696;2023-03-23T01:35:39;13.3;75.6
78455;SHT31;67751;51.986;5.696;2023-03-23T01:38:08;13.3;75.7
78455;SHT31;67751;51.986;5.696;2023-03-23T01:40:38;13.3;74.8
78455;SHT31;67751;51.986;5.696;2023-03-23T01:43:13;13.3;75.7
78455;SHT31;67751;51.986;5.696;2023-03-23T01:45:43;13.3;75.5
78455;SHT31;67751;51.986;5.696;2023-03-23T01:48:17;13.3;75.6
78455;SHT31;67751;51.986;5.696;2023-03-23T01:50:56;13.3;75.5
78455;SHT31;67751;51.986;5.696;2023-03-23T01:53:30;13.3;75.8
78455;SHT31;67751;51.986;5.696;2023-03-23T01:56:01;13.3;75.1
78455;SHT31;67751;51.986;5.696;2023-03-23T01:58:33;13.3;75.3
78455;SHT31;67751;51.986;5.696;2023-03-23T02:01:07;13.3;75.2
78455;SHT31;67751;51.986;5.696;2023-03-23T02:03:43;13.3;75.0
78455;SHT31;67751;51.986;5.696;2023-03-23T02:06:15;13.3;74.7
78455;SHT31;67751;51.986;5.696;2023-03-23T02:08:48;13.3;74.6
78455;SHT31;67751;51.986;5.696;2023-03-23T02:11:21;13.3;74.8
78455;SHT31;67751;51.986;5.696;2023-03-23T02:13:51;13.3;75.2
78455;SHT31;67751;51.986;5.696;2023-03-23T02:16:28;13.3;75.1
78455;SHT31;67751;51.986;5.696;2023-03-23T02:22:16;13.4;75.2
78455;SHT31;67751;51.986;5.696;2023-03-23T02:24:58;13.4;74.8
78455;SHT31;67751;51.986;5.696;2023-03-23T02:27:43;13.4;74.8
78455;SHT31;67751;51.986;5.696;2023-03-23T02:30:32;13.4;75.1
78455;SHT31;67751;51.986;5.696;2023-03-23T02:33:50;13.4;75.5
78455;SHT31;67751;51.986;5.696;2023-03-23T02:36:25;13.4;75.4
78455;SHT31;67751;51.986;5.696;2023-03-23T02:39:04;13.4;75.0
78455;SHT31;67751;51.986;5.696;2023-03-23T02:41:42;13.4;75.2
78455;SHT31;67751;51.986;5.696;2023-03-23T02:44:14;13.4;75.1
78455;SHT31;67751;51.986;5.696;2023-03-23T02:46:45;13.4;74.4
78455;SHT31;67751;51.986;5.696;2023-03-23T02:49:16;13.4;75.4
78455;SHT31;67751;51.986;5.696;2023-03-23T02:51:48;13.4;74.9
78455;SHT31;67751;51.986;5.696;2023-03-23T02:54:20;13.4;75.0
78455;SHT31;67751;51.986;5.696;2023-03-23T02:56:54;13.4;75.3
78455;SHT31;67751;51.986;5.696;2023-03-23T02:59:24;13.4;75.5
78455;SHT31;67751;51.986;5.696;2023-03-23T03:02:00;13.4;75.0
78455;SHT31;67751;51.986;5.696;2023-03-23T03:04:33;13.5;74.3
78455;SHT31;67751;51.986;5.696;2023-03-23T03:07:41;13.5;74.2
78455;SHT31;67751;51.986;5.696;2023-03-23T03:10:22;13.5;74.8
78455;SHT31;67751;51.986;5.696;2023-03-23T03:12:58;13.5;75.1
78455;SHT31;67751;51.986;5.696;2023-03-23T03:15:35;13.5;75.0
78455;SHT31;67751;51.986;5.696;2023-03-23T03:18:12;13.5;73.9
78455;SHT31;67751;51.986;5.696;2023-03-23T03:20:47;13.5;74.0
78455;SHT31;67751;51.986;5.696;2023-03-23T03:23:21;13.6;74.3
78455;SHT31;67751;51.986;5.696;2023-03-23T03:25:54;13.6;73.8
78455;SHT31;67751;51.986;5.696;2023-03-23T03:28:25;13.6;73.5
78455;SHT31;67751;51.986;5.696;2023-03-23T03:31:00;13.6;73.4
78455;SHT31;67751;51.986;5.696;2023-03-23T03:33:31;13.6;72.9
78455;SHT31;67751;51.986;5.696;2023-03-23T03:36:04;13.6;73.3
78455;SHT31;67751;51.986;5.696;2023-03-23T03:38:44;13.7;73.4
78455;SHT31;67751;51.986;5.696;2023-03-23T03:41:15;13.7;72.9
78455;SHT31;67751;51.986;5.696;2023-03-23T03:43:46;13.7;73.3
78455;SHT31;67751;51.986;5.696;2023-03-23T03:46:17;13.7;72.7
78455;SHT31;67751;51.986;5.696;2023-03-23T03:48:47;13.7;72.5
78455;SHT31;67751;51.986;5.696;2023-03-23T03:51:19;13.7;72.7
78455;SHT31;67751;51.986;5.696;2023-03-23T03:53:49;13.7;72.7
78455;SHT31;67751;51.986;5.696;2023-03-23T03:56:19;13.7;72.4
78455;SHT31;67751;51.986;5.696;2023-03-23T03:58:49;13.7;73.3
78455;SHT31;67751;51.986;5.696;2023-03-23T04:01:21;13.7;72.8
78455;SHT31;67751;51.986;5.696;2023-03-23T04:03:51;13.7;72.2
78455;SHT31;67751;51.986;5.696;2023-03-23T04:06:22;13.8;72.9
78455;SHT31;67751;51.986;5.696;2023-03-23T04:08:55;13.8;72.0
78455;SHT31;67751;51.986;5.696;2023-03-23T04:11:26;13.8;72.3
78455;SHT31;67751;51.986;5.696;2023-03-23T04:13:55;13.8;72.2
78455;SHT31;67751;51.986;5.696;2023-03-23T04:16:27;13.8;72.5
78455;SHT31;67751;51.986;5.696;2023-03-23T04:18:57;13.8;71.5
78455;SHT31;67751;51.986;5.696;2023-03-23T04:21:27;13.8;71.5
78455;SHT31;67751;51.986;5.696;2023-03-23T04:23:58;13.8;71.7
78455;SHT31;67751;51.986;5.696;2023-03-23T04:26:29;13.8;71.4
78455;SHT31;67751;51.986;5.696;2023-03-23T04:29:02;13.8;71.4
78455;SHT31;67751;51.986;5.696;2023-03-23T04:31:33;13.8;71.7
78455;SHT31;67751;51.986;5.696;2023-03-23T04:34:03;13.8;71.2
78455;SHT31;67751;51.986;5.696;2023-03-23T04:36:33;13.8;71.4
78455;SHT31;67751;51.986;5.696;2023-03-23T04:39:03;13.8;70.7
78455;SHT31;67751;51.986;5.696;2023-03-23T04:41:36;13.8;71.3
78455;SHT31;67751;51.986;5.696;2023-03-23T04:44:07;13.8;70.6
78455;SHT31;67751;51.986;5.696;2023-03-23T04:46:37;13.9;70.6
78455;SHT31;67751;51.986;5.696;2023-03-23T04:49:06;13.9;70.8
78455;SHT31;67751;51.986;5.696;2023-03-23T04:51:36;13.9;70.7
78455;SHT31;67751;51.986;5.696;2023-03-23T04:54:08;13.9;70.2
78455;SHT31;67751;51.986;5.696;2023-03-23T04:56:38;13.9;70.9
78455;SHT31;67751;51.986;5.696;2023-03-23T04:59:08;13.9;70.2
78455;SHT31;67751;51.986;5.696;2023-03-23T05:01:38;13.9;69.8
78455;SHT31;67751;51.986;5.696;2023-03-23T05:04:13;13.9;69.9
78455;SHT31;67751;51.986;5.696;2023-03-23T05:06:44;13.9;70.1
78455;SHT31;67751;51.986;5.696;2023-03-23T05:09:13;13.9;70.1
78455;SHT31;67751;51.986;5.696;2023-03-23T05:11:43;13.9;69.7
78455;SHT31;67751;51.986;5.696;2023-03-23T05:14:13;13.9;70.1
78455;SHT31;67751;51.986;5.696;2023-03-23T05:16:43;13.9;69.6
78455;SHT31;67751;51.986;5.696;2023-03-23T05:19:14;13.9;69.3
78455;SHT31;67751;51.986;5.696;2023-03-23T05:21:44;13.9;69.4
78455;SHT31;67751;51.986;5.696;2023-03-23T05:24:13;13.9;69.3
78455;SHT31;67751;51.986;5.696;2023-03-23T05:26:43;13.9;69.4
78455;SHT31;67751;51.986;5.696;2023-03-23T05:29:15;13.9;69.2
78455;SHT31;67751;51.986;5.696;2023-03-23T05:31:45;13.9;69.4
78455;SHT31;67751;51.986;5.696;2023-03-23T05:34:15;13.9;69.1
78455;SHT31;67751;51.986;5.696;2023-03-23T05:36:45;13.9;69.4
78455;SHT31;67751;51.986;5.696;2023-03-23T05:39:14;13.9;69.8
78455;SHT31;67751;51.986;5.696;2023-03-23T05:41:45;13.9;69.5
78455;SHT31;67751;51.986;5.696;2023-03-23T05:44:14;13.9;69.6
78455;SHT31;67751;51.986;5.696;2023-03-23T05:46:45;13.9;69.3
78455;SHT31;67751;51.986;5.696;2023-03-23T05:49:16;13.9;70.2
78455;SHT31;67751;51.986;5.696;2023-03-23T05:51:46;13.9;69.8
78455;SHT31;67751;51.986;5.696;2023-03-23T05:54:17;13.9;69.8
78455;SHT31;67751;51.986;5.696;2023-03-23T05:56:46;13.9;69.2
78455;SHT31;67751;51.986;5.696;2023-03-23T05:59:16;13.9;70.0
78455;SHT31;67751;51.986;5.696;2023-03-23T06:01:45;13.9;69.5
78455;SHT31;67751;51.986;5.696;2023-03-23T06:04:15;13.9;68.8
78455;SHT31;67751;51.986;5.696;2023-03-23T06:06:45;13.9;69.8
78455;SHT31;67751;51.986;5.696;2023-03-23T06:09:14;13.9;68.9
78455;SHT31;67751;51.986;5.696;2023-03-23T06:11:44;13.9;69.2
78455;SHT31;67751;51.986;5.696;2023-03-23T06:14:14;13.9;69.1
78455;SHT31;67751;51.986;5.696;2023-03-23T06:16:45;13.9;69.3
78455;SHT31;67751;51.986;5.696;2023-03-23T06:19:14;13.9;70.0
78455;SHT31;67751;51.986;5.696;2023-03-23T06:21:44;13.9;69.6
78455;SHT31;67751;51.986;5.696;2023-03-23T06:24:14;13.9;69.4
78455;SHT31;67751;51.986;5.696;2023-03-23T06:26:44;13.9;69.9
78455;SHT31;67751;51.986;5.696;2023-03-23T06:29:15;13.9;69.1
78455;SHT31;67751;51.986;5.696;2023-03-23T06:31:49;13.9;69.2
78455;SHT31;67751;51.986;5.696;2023-03-23T06:34:22;13.9;69.0
78455;SHT31;67751;51.986;5.696;2023-03-23T06:36:52;13.9;69.3
78455;SHT31;67751;51.986;5.696;2023-03-23T06:39:22;13.9;69.1
78455;SHT31;67751;51.986;5.696;2023-03-23T06:41:52;13.9;69.4
78455;SHT31;67751;51.986;5.696;2023-03-23T06:44:21;13.9;69.2
78455;SHT31;67751;51.986;5.696;2023-03-23T06:46:51;13.9;69.3
78455;SHT31;67751;51.986;5.696;2023-03-23T06:49:20;13.9;69.3
78455;SHT31;67751;51.986;5.696;2023-03-23T06:51:50;13.9;69.5
78455;SHT31;67751;51.986;5.696;2023-03-23T06:54:20;13.9;69.9
78455;SHT31;67751;51.986;5.696;2023-03-23T06:56:52;13.9;69.8
78455;SHT31;67751;51.986;5.696;2023-03-23T06:59:21;13.9;69.3
78455;SHT31;67751;51.986;5.696;2023-03-23T07:01:51;13.9;69.7
78455;SHT31;67751;51.986;5.696;2023-03-23T07:04:21;13.9;69.3
78455;SHT31;67751;51.986;5.696;2023-03-23T07:06:53;13.9;69.2
78455;SHT31;67751;51.986;5.696;2023-03-23T07:09:23;13.9;69.6
78455;SHT31;67751;51.986;5.696;2023-03-23T07:11:53;13.9;68.8
78455;SHT31;67751;51.986;5.696;2023-03-23T07:14:23;13.9;68.9
78455;SHT31;67751;51.986;5.696;2023-03-23T07:16:52;13.9;69.8
78455;SHT31;67751;51.986;5.696;2023-03-23T07:19:23;13.9;69.3
78455;SHT31;67751;51.986;5.696;2023-03-23T07:21:53;13.9;69.2
78455;SHT31;67751;51.986;5.696;2023-03-23T07:24:27;13.9;70.0
78455;SHT31;67751;51.986;5.696;2023-03-23T07:26:56;14.0;69.4
78455;SHT31;67751;51.986;5.696;2023-03-23T07:29:26;14.0;69.8
78455;SHT31;67751;51.986;5.696;2023-03-23T07:31:56;14.0;69.6
78455;SHT31;67751;51.986;5.696;2023-03-23T07:34:25;14.0;69.3
78455;SHT31;67751;51.986;5.696;2023-03-23T07:36:55;14.0;69.7
78455;SHT31;67751;51.986;5.696;2023-03-23T07:39:25;14.0;69.2
78455;SHT31;67751;51.986;5.696;2023-03-23T07:41:54;14.0;69.6
78455;SHT31;67751;51.986;5.696;2023-03-23T07:44:24;14.0;69.3
78455;SHT31;67751;51.986;5.696;2023-03-23T07:46:56;14.0;69.5
78455;SHT31;67751;51.986;5.696;2023-03-23T07:49:27;14.0;69.4
78455;SHT31;67751;51.986;5.696;2023-03-23T07:51:58;14.0;69.8
78455;SHT31;67751;51.986;5.696;2023-03-23T07:54:30;14.0;68.9
78455;SHT31;67751;51.986;5.696;2023-03-23T07:56:59;14.0;69.6
78455;SHT31;67751;51.986;5.696;2023-03-23T07:59:29;14.0;70.5
78455;SHT31;67751;51.986;5.696;2023-03-23T08:01:59;14.0;70.1
78455;SHT31;67751;51.986;5.696;2023-03-23T08:04:29;14.0;70.4
78455;SHT31;67751;51.986;5.696;2023-03-23T08:07:04;14.0;70.8
78455;SHT31;67751;51.986;5.696;2023-03-23T08:09:33;13.9;71.0
78455;SHT31;67751;51.986;5.696;2023-03-23T08:12:03;13.9;71.7
78455;SHT31;67751;51.986;5.696;2023-03-23T08:14:33;13.9;71.4
78455;SHT31;67751;51.986;5.696;2023-03-23T08:17:03;13.9;72.0
78455;SHT31;67751;51.986;5.696;2023-03-23T08:19:32;13.8;72.7
78455;SHT31;67751;51.986;5.696;2023-03-23T08:22:04;13.8;73.4
78455;SHT31;67751;51.986;5.696;2023-03-23T08:24:34;13.8;72.8
78455;SHT31;67751;51.986;5.696;2023-03-23T08:27:03;13.8;73.3
78455;SHT31;67751;51.986;5.696;2023-03-23T08:29:36;13.8;72.9
78455;SHT31;67751;51.986;5.696;2023-03-23T08:32:06;13.7;73.2
78455;SHT31;67751;51.986;5.696;2023-03-23T08:34:38;13.7;73.2
78455;SHT31;67751;51.986;5.696;2023-03-23T08:37:09;13.7;74.0
78455;SHT31;67751;51.986;5.696;2023-03-23T08:39:39;13.7;74.0
78455;SHT31;67751;51.986;5.696;2023-03-23T08:42:10;13.7;74.0
78455;SHT31;67751;51.986;5.696;2023-03-23T08:44:41;13.7;72.9
78455;SHT31;67751;51.986;5.696;2023-03-23T08:47:11;13.7;72.9
78455;SHT31;67751;51.986;5.696;2023-03-23T08:49:41;13.7;71.9
78455;SHT31;67751;51.986;5.696;2023-03-23T08:52:11;13.6;72.3
78455;SHT31;67751;51.986;5.696;2023-03-23T08:54:40;13.6;71.6
78455;SHT31;67751;51.986;5.696;2023-03-23T08:57:14;13.6;72.3
78455;SHT31;67751;51.986;5.696;2023-03-23T08:59:45;13.6;72.6
78455;SHT31;67751;51.986;5.696;2023-03-23T09:02:15;13.6;71.5
78455;SHT31;67751;51.986;5.696;2023-03-23T09:04:45;13.6;71.9
78455;SHT31;67751;51.986;5.696;2023-03-23T09:07:16;13.6;71.6
78455;SHT31;67751;51.986;5.696;2023-03-23T09:09:46;13.6;70.8
78455;SHT31;67751;51.986;5.696;2023-03-23T09:12:16;13.6;71.5
78455;SHT31;67751;51.986;5.696;2023-03-23T09:14:45;13.6;71.7
78455;SHT31;67751;51.986;5.696;2023-03-23T09:17:17;13.6;71.5
78455;SHT31;67751;51.986;5.696;2023-03-23T09:19:49;13.7;70.3
78455;SHT31;67751;51.986;5.696;2023-03-23T09:22:18;13.7;69.5
78455;SHT31;67751;51.986;5.696;2023-03-23T09:24:51;13.7;70.2
78455;SHT31;67751;51.986;5.696;2023-03-23T09:27:20;13.7;69.3
78455;SHT31;67751;51.986;5.696;2023-03-23T09:29:50;13.7;69.7
78455;SHT31;67751;51.986;5.696;2023-03-23T09:32:20;13.7;69.9
78455;SHT31;67751;51.986;5.696;2023-03-23T09:34:50;13.8;68.3
78455;SHT31;67751;51.986;5.696;2023-03-23T09:37:22;13.8;68.6
78455;SHT31;67751;51.986;5.696;2023-03-23T09:39:52;13.8;68.2
78455;SHT31;67751;51.986;5.696;2023-03-23T09:42:38;13.8;69.4
78455;SHT31;67751;51.986;5.696;2023-03-23T09:45:18;13.8;68.7
78455;SHT31;67751;51.986;5.696;2023-03-23T09:48:05;13.9;69.5
78455;SHT31;67751;51.986;5.696;2023-03-23T09:50:41;13.9;68.5
78455;SHT31;67751;51.986;5.696;2023-03-23T09:53:17;13.9;66.9
78455;SHT31;67751;51.986;5.696;2023-03-23T09:55:48;13.9;67.4
78455;SHT31;67751;51.986;5.696;2023-03-23T09:58:28;14.0;67.2
78455;SHT31;67751;51.986;5.696;2023-03-23T10:00:59;14.0;67.6
78455;SHT31;67751;51.986;5.696;2023-03-23T10:03:36;14.0;68.8
78455;SHT31;67751;51.986;5.696;2023-03-23T10:06:10;14.0;69.4
78455;SHT31;67751;51.986;5.696;2023-03-23T10:08:44;14.1;70.3
78455;SHT31;67751;51.986;5.696;2023-03-23T10:11:18;14.2;67.5
78455;SHT31;67751;51.986;5.696;2023-03-23T10:14:00;14.2;68.8
78455;SHT31;67751;51.986;5.696;2023-03-23T10:16:38;14.3;68.3
78455;SHT31;67751;51.986;5.696;2023-03-23T10:19:17;14.3;67.6
78455;SHT31;67751;51.986;5.696;2023-03-23T10:21:56;14.4;66.6
78455;SHT31;67751;51.986;5.696;2023-03-23T10:24:36;14.5;65.6
78455;SHT31;67751;51.986;5.696;2023-03-23T10:27:22;14.6;67.4
78455;SHT31;67751;51.986;5.696;2023-03-23T10:29:58;14.6;66.4
78455;SHT31;67751;51.986;5.696;2023-03-23T10:32:43;14.7;65.8
78455;SHT31;67751;51.986;5.696;2023-03-23T10:35:19;14.7;66.0
78455;SHT31;67751;51.986;5.696;2023-03-23T10:37:55;14.8;66.3
78455;SHT31;67751;51.986;5.696;2023-03-23T10:40:29;14.9;65.4
78455;SHT31;67751;51.986;5.696;2023-03-23T10:43:02;14.9;64.0
78455;SHT31;67751;51.986;5.696;2023-03-23T10:45:32;15.0;64.5
78455;SHT31;67751;51.986;5.696;2023-03-23T10:48:11;15.0;63.1
78455;SHT31;67751;51.986;5.696;2023-03-23T10:50:45;15.0;62.1
78455;SHT31;67751;51.986;5.696;2023-03-23T10:53:21;15.1;63.2
78455;SHT31;67751;51.986;5.696;2023-03-23T10:55:52;15.1;62.7
78455;SHT31;67751;51.986;5.696;2023-03-23T10:58:27;15.1;60.0
78455;SHT31;67751;51.986;5.696;2023-03-23T11:01:01;15.1;60.4
78455;SHT31;67751;51.986;5.696;2023-03-23T11:03:38;15.1;61.4
78455;SHT31;67751;51.986;5.696;2023-03-23T11:06:11;15.1;58.7
78455;SHT31;67751;51.986;5.696;2023-03-23T11:08:52;15.1;60.2
78455;SHT31;67751;51.986;5.696;2023-03-23T11:11:26;15.2;59.4
78455;SHT31;67751;51.986;5.696;2023-03-23T11:14:02;15.2;59.7
78455;SHT31;67751;51.986;5.696;2023-03-23T11:16:34;15.2;60.8
78455;SHT31;67751;51.986;5.696;2023-03-23T11:19:15;15.2;59.2
78455;SHT31;67751;51.986;5.696;2023-03-23T11:21:50;15.3;59.8
78455;SHT31;67751;51.986;5.696;2023-03-23T11:24:25;15.3;60.6
78455;SHT31;67751;51.986;5.696;2023-03-23T11:26:57;15.3;60.4
78455;SHT31;67751;51.986;5.696;2023-03-23T11:29:29;15.3;60.2
78455;SHT31;67751;51.986;5.696;2023-03-23T11:32:05;15.3;60.6
78455;SHT31;67751;51.986;5.696;2023-03-23T11:34:41;15.3;60.5
78455;SHT31;67751;51.986;5.696;2023-03-23T11:37:14;15.3;61.5
78455;SHT31;67751;51.986;5.696;2023-03-23T11:39:56;15.3;60.1
78455;SHT31;67751;51.986;5.696;2023-03-23T11:42:38;15.3;61.3
78455;SHT31;67751;51.986;5.696;2023-03-23T11:45:17;15.3;60.9
78455;SHT31;67751;51.986;5.696;2023-03-23T11:47:56;15.3;61.7
78455;SHT31;67751;51.986;5.696;2023-03-23T11:50:32;15.2;62.6
78455;SHT31;67751;51.986;5.696;2023-03-23T11:53:10;15.3;62.2
78455;SHT31;67751;51.986;5.696;2023-03-23T11:55:58;15.3;60.6
78455;SHT31;67751;51.986;5.696;2023-03-23T11:58:31;15.3;60.8
78455;SHT31;67751;51.986;5.696;2023-03-23T12:01:05;15.3;61.9
78455;SHT31;67751;51.986;5.696;2023-03-23T12:04:13;15.3;60.2
78455;SHT31;67751;51.986;5.696;2023-03-23T12:06:52;15.3;61.3
78455;SHT31;67751;51.986;5.696;2023-03-23T12:09:38;15.3;61.5
78455;SHT31;67751;51.986;5.696;2023-03-23T12:12:18;15.4;60.3
78455;SHT31;67751;51.986;5.696;2023-03-23T12:17:43;15.5;59.8
78455;SHT31;67751;51.986;5.696;2023-03-23T12:20:31;15.5;59.5
78455;SHT31;67751;51.986;5.696;2023-03-23T12:23:23;15.5;59.3
78455;SHT31;67751;51.986;5.696;2023-03-23T12:26:14;15.6;61.5
78455;SHT31;67751;51.986;5.696;2023-03-23T12:29:48;15.6;64.2
78455;SHT31;67751;51.986;5.696;2023-03-23T12:32:31;15.5;66.0
78455;SHT31;67751;51.986;5.696;2023-03-23T12:35:18;15.4;66.9
78455;SHT31;67751;51.986;5.696;2023-03-23T12:38:06;15.2;67.3
78455;SHT31;67751;51.986;5.696;2023-03-23T12:40:45;15.1;68.0
78455;SHT31;67751;51.986;5.696;2023-03-23T12:43:23;15.0;68.4
78455;SHT31;67751;51.986;5.696;2023-03-23T12:47:21;14.9;69.2
78455;SHT31;67751;51.986;5.696;2023-03-23T12:49:56;14.7;70.3
78455;SHT31;67751;51.986;5.696;2023-03-23T12:52:32;14.6;70.4
78455;SHT31;67751;51.986;5.696;2023-03-23T12:55:07;14.6;71.4
78455;SHT31;67751;51.986;5.696;2023-03-23T12:57:47;14.5;72.9
78455;SHT31;67751;51.986;5.696;2023-03-23T13:00:23;14.4;72.0
78455;SHT31;67751;51.986;5.696;2023-03-23T13:03:01;14.4;72.2
78455;SHT31;67751;51.986;5.696;2023-03-23T13:05:42;14.4;72.8
78455;SHT31;67751;51.986;5.696;2023-03-23T13:08:16;14.3;73.8
78455;SHT31;67751;51.986;5.696;2023-03-23T13:10:50;14.3;72.9
78455;SHT31;67751;51.986;5.696;2023-03-23T13:13:23;14.3;74.1
78455;SHT31;67751;51.986;5.696;2023-03-23T13:16:04;14.3;73.8
78455;SHT31;67751;51.986;5.696;2023-03-23T13:18:47;14.2;74.2
78455;SHT31;67751;51.986;5.696;2023-03-23T13:21:25;14.2;74.1
78455;SHT31;67751;51.986;5.696;2023-03-23T13:24:02;14.2;73.8
78455;SHT31;67751;51.986;5.696;2023-03-23T13:26:40;14.2;72.9
78455;SHT31;67751;51.986;5.696;2023-03-23T13:29:14;14.2;70.7
78455;SHT31;67751;51.986;5.696;2023-03-23T13:31:47;14.3;70.8
78455;SHT31;67751;51.986;5.696;2023-03-23T13:34:19;14.3;73.2
78455;SHT31;67751;51.986;5.696;2023-03-23T13:36:56;14.3;73.7
78455;SHT31;67751;51.986;5.696;2023-03-23T13:39:28;14.3;73.3
78455;SHT31;67751;51.986;5.696;2023-03-23T13:42:04;14.3;73.4
78455;SHT31;67751;51.986;5.696;2023-03-23T13:44:53;14.4;72.6
78455;SHT31;67751;51.986;5.696;2023-03-23T13:47:28;14.4;71.9
78455;SHT31;67751;51.986;5.696;2023-03-23T13:50:02;14.4;69.8
78455;SHT31;67751;51.986;5.696;2023-03-23T13:52:52;14.4;72.3
78455;SHT31;67751;51.986;5.696;2023-03-23T13:55:39;14.5;71.0
78455;SHT31;67751;51.986;5.696;2023-03-23T13:58:22;14.5;72.6
78455;SHT31;67751;51.986;5.696;2023-03-23T14:01:13;14.5;72.8
78455;SHT31;67751;51.986;5.696;2023-03-23T14:03:47;14.6;73.1
78455;SHT31;67751;51.986;5.696;2023-03-23T14:06:21;14.6;73.5
78455;SHT31;67751;51.986;5.696;2023-03-23T14:08:53;14.6;72.6
78455;SHT31;67751;51.986;5.696;2023-03-23T14:11:26;14.6;72.4
78455;SHT31;67751;51.986;5.696;2023-03-23T14:14:05;14.6;72.7
78455;SHT31;67751;51.986;5.696;2023-03-23T14:16:41;14.7;70.9
78455;SHT31;67751;51.986;5.696;2023-03-23T14:19:21;14.7;72.0
78455;SHT31;67751;51.986;5.696;2023-03-23T14:21:54;14.7;70.8
78455;SHT31;67751;51.986;5.696;2023-03-23T14:24:27;14.7;72.6
78455;SHT31;67751;51.986;5.696;2023-03-23T14:27:10;14.7;71.9
78455;SHT31;67751;51.986;5.696;2023-03-23T14:29:42;14.7;69.3
78455;SHT31;67751;51.986;5.696;2023-03-23T14:32:16;14.7;68.6
78455;SHT31;67751;51.986;5.696;2023-03-23T14:34:49;14.7;70.1
78455;SHT31;67751;51.986;5.696;2023-03-23T14:37:21;14.7;67.8
78455;SHT31;67751;51.986;5.696;2023-03-23T14:39:53;14.7;67.2
78455;SHT31;67751;51.986;5.696;2023-03-23T14:42:28;14.8;68.1
78455;SHT31;67751;51.986;5.696;2023-03-23T14:45:00;14.8;70.2
78455;SHT31;67751;51.986;5.696;2023-03-23T14:47:36;14.8;70.7
78455;SHT31;67751;51.986;5.696;2023-03-23T14:50:23;14.9;66.3
78455;SHT31;67751;51.986;5.696;2023-03-23T14:52:55;14.9;68.5
78455;SHT31;67751;51.986;5.696;2023-03-23T14:55:25;14.9;66.6
78455;SHT31;67751;51.986;5.696;2023-03-23T14:58:08;15.0;68.6
78455;SHT31;67751;51.986;5.696;2023-03-23T15:00:40;15.0;66.0
78455;SHT31;67751;51.986;5.696;2023-03-23T15:03:16;15.0;67.0
78455;SHT31;67751;51.986;5.696;2023-03-23T15:05:49;15.1;67.9
78455;SHT31;67751;51.986;5.696;2023-03-23T15:08:24;15.1;66.4
78455;SHT31;67751;51.986;5.696;2023-03-23T15:11:04;15.2;64.8
78455;SHT31;67751;51.986;5.696;2023-03-23T15:13:43;15.2;66.2
78455;SHT31;67751;51.986;5.696;2023-03-23T15:16:19;15.2;64.8
78455;SHT31;67751;51.986;5.696;2023-03-23T15:18:51;15.2;65.3
78455;SHT31;67751;51.986;5.696;2023-03-23T15:21:28;15.3;64.9
78455;SHT31;67751;51.986;5.696;2023-03-23T15:23:58;15.3;65.9
78455;SHT31;67751;51.986;5.696;2023-03-23T15:26:30;15.3;66.1
78455;SHT31;67751;51.986;5.696;2023-03-23T15:29:16;15.3;65.2
78455;SHT31;67751;51.986;5.696;2023-03-23T15:31:50;15.3;65.7
78455;SHT31;67751;51.986;5.696;2023-03-23T15:34:25;15.4;63.2
78455;SHT31;67751;51.986;5.696;2023-03-23T15:37:00;15.4;64.0
78455;SHT31;67751;51.986;5.696;2023-03-23T15:39:32;15.4;63.9
78455;SHT31;67751;51.986;5.696;2023-03-23T15:42:05;15.4;64.4
78455;SHT31;67751;51.986;5.696;2023-03-23T15:44:34;15.4;64.0
78455;SHT31;67751;51.986;5.696;2023-03-23T15:47:16;15.4;63.8
78455;SHT31;67751;51.986;5.696;2023-03-23T15:50:01;15.4;64.4
78455;SHT31;67751;51.986;5.696;2023-03-23T15:52:21;15.5;64.2
78455;SHT31;67751;51.986;5.696;2023-03-23T15:54:51;15.5;63.3
78455;SHT31;67751;51.986;5.696;2023-03-23T15:57:20;15.5;65.3
78455;SHT31;67751;51.986;5.696;2023-03-23T15:59:50;15.5;62.9
78455;SHT31;67751;51.986;5.696;2023-03-23T16:02:22;15.5;63.4
78455;SHT31;67751;51.986;5.696;2023-03-23T16:04:55;15.5;64.2
78455;SHT31;67751;51.986;5.696;2023-03-23T16:07:24;15.6;64.4
78455;SHT31;67751;51.986;5.696;2023-03-23T16:09:54;15.6;64.7
78455;SHT31;67751;51.986;5.696;2023-03-23T16:12:23;15.6;64.9
78455;SHT31;67751;51.986;5.696;2023-03-23T16:14:53;15.7;65.3
78455;SHT31;67751;51.986;5.696;2023-03-23T16:17:22;15.7;66.1
78455;SHT31;67751;51.986;5.696;2023-03-23T16:19:52;15.7;64.6
78455;SHT31;67751;51.986;5.696;2023-03-23T16:22:22;15.7;64.4
78455;SHT31;67751;51.986;5.696;2023-03-23T16:24:51;15.7;62.3
78455;SHT31;67751;51.986;5.696;2023-03-23T16:27:21;15.7;62.1
78455;SHT31;67751;51.986;5.696;2023-03-23T16:29:50;15.7;61.6
78455;SHT31;67751;51.986;5.696;2023-03-23T16:32:20;15.7;62.9
78455;SHT31;67751;51.986;5.696;2023-03-23T16:34:49;15.7;61.8
78455;SHT31;67751;51.986;5.696;2023-03-23T16:37:19;15.7;62.5
78455;SHT31;67751;51.986;5.696;2023-03-23T16:39:49;15.7;62.0
78455;SHT31;67751;51.986;5.696;2023-03-23T16:42:18;15.6;62.6
78455;SHT31;67751;51.986;5.696;2023-03-23T16:44:48;15.6;61.5
78455;SHT31;67751;51.986;5.696;2023-03-23T16:47:20;15.6;63.3
78455;SHT31;67751;51.986;5.696;2023-03-23T16:49:51;15.6;61.8